• Join FlightAware (Why Join?)
  • Login
  • US Flag 
07:12PM EDT


 

Airport Tracker/Info


-or-


 

Live Flight TrackerFlight Track Log ✈ N82531 ✈ 23-Jul-2010 ✈ KAMN - KRST

Flight Track Log - Related Links

Times and Time Zones

All times are in EDT time to prevent confusion due to time zone crossing. See the N82531 flight status page for this flight to view local times or setup timezone preferences in your user account.

Time Position Orientation Groundspeed Altitude Reporting Facility
EDT Latitude Longitude Course Direction KTS MPH feet Rate Location/Type
08:53AM 43.3700 -84.7131 301° West 108 124 1,900  Level Cleveland Center
08:57AM 43.4125 -84.8103 296° West 71 82 3,600 360 Climbing Cleveland Center
09:01AM 43.4464 -84.9069 296° West 78 90 5,200 300 Climbing Cleveland Center
09:08AM 43.5122 -85.0919 297° West 93 107 7,100 240 Climbing Minneapolis Center
09:09AM 43.5225 -85.1192 298° West 98 113 7,300 240 Climbing Minneapolis Center
09:10AM 43.5328 -85.1464 299° West 92 106 7,600 240 Climbing Minneapolis Center
09:11AM 43.5458 -85.1792 287° West 92 106 7,800 240 Climbing Minneapolis Center
09:12AM 43.5519 -85.2069 292° West 92 106 8,100 240 Climbing Minneapolis Center
09:13AM 43.5606 -85.2372 297° West 87 100 8,300 180 Climbing Minneapolis Center
09:14AM 43.5708 -85.2644 293° West 87 100 8,500 180 Climbing Minneapolis Center
09:15AM 43.5792 -85.2919 290° West 87 100 8,700 120 Climbing Minneapolis Center
09:16AM 43.5878 -85.3253 292° West 87 100 8,800 60 Climbing Minneapolis Center
09:17AM 43.5961 -85.3531 296° West 87 100 8,900 60 Climbing Minneapolis Center
09:18AM 43.6067 -85.3831 291° West 87 100 9,000  Climbing Minneapolis Center
09:19AM 43.6153 -85.4136 296° West 87 100 9,000 60 Level Minneapolis Center
09:20AM 43.6258 -85.4436 302° West 87 100 9,200 120 Climbing Minneapolis Center
09:21AM 43.6381 -85.4708 291° West 87 100 9,300 120 Climbing Minneapolis Center
09:22AM 43.6467 -85.5011 295° West 87 100 9,500 120 Climbing Minneapolis Center
09:23AM 43.6569 -85.5314 295° West 87 100 9,600 120 Climbing Minneapolis Center
09:24AM 43.6678 -85.5644 291° West 87 100 9,800 120 Climbing Minneapolis Center
09:25AM 43.6761 -85.5950 290° West 87 100 9,900 60 Climbing Minneapolis Center
09:26AM 43.6847 -85.6283 300° West 87 100 10,000 60 Climbing Minneapolis Center
09:27AM 43.6972 -85.6583 296° West 87 100 10,100  Climbing Minneapolis Center
09:28AM 43.7078 -85.6886 298° West 87 100 10,100  Level Minneapolis Center
09:29AM 43.7206 -85.7214 295° West 87 100 10,200  Climbing Minneapolis Center
09:30AM 43.7336 -85.7600 298° West 92 106 10,200 -60 Level Minneapolis Center
09:31AM 43.7464 -85.7928 296° West 97 112 10,100 -60 Descending Minneapolis Center
09:32AM 43.7592 -85.8286 296° West 102 117 10,100  Level Minneapolis Center
09:33AM 43.7719 -85.8644 298° West 102 117 10,100  Level Minneapolis Center
09:34AM 43.7847 -85.8972 296° West 107 123 10,100 -60 Level Minneapolis Center
09:35AM 43.7975 -85.9331 294° West 107 123 10,000  Descending Minneapolis Center
09:36AM 43.8081 -85.9664 296° West 102 117 10,100  Climbing Minneapolis Center
09:37AM 43.8186 -85.9967 289° West 102 117 10,100  Level Minneapolis Center
09:38AM 43.8269 -86.0303 296° West 102 117 10,100  Level Minneapolis Center
09:39AM 43.8375 -86.0606 294° West 97 112 10,100  Level Minneapolis Center
09:40AM 43.8481 -86.0939 294° West 97 112 10,100  Level Minneapolis Center
09:41AM 43.8586 -86.1272 292° West 97 112 10,100  Level Minneapolis Center
09:42AM 43.8692 -86.1633 296° West 97 112 10,100  Level Minneapolis Center
09:43AM 43.8819 -86.1992 288° West 97 112 10,100 -60 Level Minneapolis Center
09:44AM 43.8906 -86.2356 298° West 102 117 10,000 -60 Descending Minneapolis Center
09:45AM 43.9033 -86.2686 289° West 102 117 10,000  Level Minneapolis Center
09:46AM 43.9117 -86.3022 290° West 102 117 10,100  Climbing Minneapolis Center
09:47AM 43.9197 -86.3331 294° West 102 117 10,100 -60 Level Minneapolis Center
09:48AM 43.9303 -86.3664 294° West 97 112 10,000 -60 Descending Minneapolis Center
09:49AM 43.9408 -86.3997 295° West 97 112 10,000  Level Minneapolis Center
09:50AM 43.9511 -86.4303 289° West 92 106 10,000  Level Minneapolis Center
09:51AM 43.9594 -86.4639 285° West 92 106 10,100  Climbing Minneapolis Center
09:52AM 43.9658 -86.4978 284° West 86 99 10,000  Descending Minneapolis Center
09:53AM 43.9719 -86.5317 275° West 86 99 10,100 60 Climbing Minneapolis Center
09:54AM 43.9742 -86.5661 275° West 91 105 10,200  Climbing Minneapolis Center
09:55AM 43.9764 -86.6033 280° West 91 105 10,100 -60 Descending Minneapolis Center
09:56AM 43.9806 -86.6375 275° West 96 110 10,100  Level Minneapolis Center
09:57AM 43.9828 -86.6750 275° West 101 116 10,100  Level Minneapolis Center
09:58AM 43.9853 -86.7122 274° West 101 116 10,100  Level Minneapolis Center
09:59AM 43.9872 -86.7467 275° West 101 116 10,100  Level Minneapolis Center
10:00AM 43.9892 -86.7811 275° West 101 116 10,100  Level Minneapolis Center
10:01AM 43.9914 -86.8183 270° West 101 116 10,100  Level Minneapolis Center
10:02AM 43.9914 -86.8503 268° West 101 116 10,100  Level Minneapolis Center
10:03AM 43.9908 -86.8792 275° West 95 109 10,100 -180 Level Minneapolis Center
10:04AM 43.9925 -86.9050 274° West 83 96 9,800 -360 Descending Minneapolis Center
10:05AM 43.9939 -86.9308 274° West 73 84 9,500 -480 Descending Minneapolis Center
10:06AM 43.9947 -86.9453 110° East 62 71 8,900 -780 Descending Minneapolis Center
10:07AM 43.9867 -86.9142 108° East 29 33 8,000 -960 Descending Minneapolis Center
10:08AM 43.9756 -86.8664 60° Northeast 76 87 7,000 -1,020 Descending Minneapolis Center
10:09AM 43.9919 -86.8269 60° Northeast 94 108 6,000 -1,020 Descending Minneapolis Center
10:10AM 44.0083 -86.7875 54° Northeast 111 128 5,000 -840 Descending Minneapolis Center
10:11AM 44.0289 -86.7475 83° East 122 140 4,400 -900 Descending Minneapolis Center
10:12AM 44.0339 -86.6922 87° East 127 146 3,200 -1,200 Descending Minneapolis Center
10:13AM 44.0356 -86.6486 88° East 121 139 2,100 -720 Descending Minneapolis Center
10:14AM 44.0369 -86.6022 88° East 113 130 1,800 -300 Descending Minneapolis Center